Bookmark and Share
Track history (hours):
 

Oceanographic research ship USCGC Healy (USA)

Detailed information on ship capabilities available from University of Delaware's Ocean Information Center and ARCUS's ALIAS (Arctic Logistics Information and Support) project.

Last reported at 2014-Apr-21 04:27 UTC. Time now 2014-Apr-21 04:59 UTC.
Position N 47°35' W 122°20'.

Type: Dredging. MMSI: 303902000.

NotesDate/timePositionNaut miles runAvg speedWind from/ knotsBaromVisibWave heightAir tempDewpointWater temp
2014-Apr-21 04:27N 47°35' W 122°20'1 0.6
2014-Apr-21 03:27N 47°35' W 122°20'1 0.8
2014-Apr-21 02:33N 47°35' W 122°21'1 0.3
2014-Apr-21 00:33N 47°35' W 122°20'1 0.3
2014-Apr-20 22:24N 47°35' W 122°21'0 0.2
2014-Apr-20 21:12N 47°35' W 122°21'0 0.1
2014-Apr-20 20:24N 47°35' W 122°20'0 0.1
2014-Apr-20 19:30N 47°35' W 122°21'0 0.0
2014-Apr-20 11:33N 47°35' W 122°21'0 0.0
2014-Apr-20 10:27N 47°35' W 122°21'0 0.0
2014-Apr-20 09:33N 47°35' W 122°21'0 0.0
2014-Apr-20 07:24N 47°35' W 122°21'0 0.0
2014-Apr-20 06:33N 47°35' W 122°21'0 0.0
2014-Apr-20 05:27N 47°35' W 122°21'0 0.0
2014-Apr-20 04:33N 47°35' W 122°21'0 0.0
2014-Apr-20 03:33N 47°35' W 122°21'0 0.0
2014-Apr-20 02:18N 47°35' W 122°21'0 0.0
2014-Apr-20 01:27N 47°35' W 122°21'0 0.0
2014-Apr-20 00:30N 47°35' W 122°21'0 0.0
2014-Apr-19 22:27N 47°35' W 122°21'0 0.0
2014-Apr-19 21:33N 47°35' W 122°21'0 0.0
2014-Apr-19 20:27N 47°35' W 122°21'0 0.0
2014-Apr-19 19:33N 47°35' W 122°21'0 0.0
2014-Apr-19 18:33N 47°35' W 122°21'0 0.0
2014-Apr-19 17:21N 47°35' W 122°21'0 0.0
2014-Apr-19 16:30N 47°35' W 122°21'0 0.0
2014-Apr-19 15:33N 47°35' W 122°21'0 0.0
2014-Apr-19 12:21N 47°35' W 122°21'0 0.0
2014-Apr-19 11:21N 47°35' W 122°21'0 0.0
2014-Apr-19 10:33N 47°35' W 122°21'0 0.0
2014-Apr-19 09:33N 47°35' W 122°21'0 0.0
2014-Apr-19 08:24N 47°35' W 122°21'0 0.0
2014-Apr-19 07:27N 47°35' W 122°21'0 0.0
2014-Apr-19 06:09N 47°35' W 122°21'0 0.0
2014-Apr-19 05:24N 47°35' W 122°21'0 0.0
2014-Apr-19 04:06N 47°35' W 122°21'0 0.0
2014-Apr-19 02:33N 47°35' W 122°21'0 0.0
2014-Apr-19 01:33N 47°35' W 122°21'0 0.0
2014-Apr-19 00:30N 47°35' W 122°21'0 0.0
2014-Apr-18 23:27N 47°35' W 122°21'0 0.0
2014-Apr-18 22:24N 47°35' W 122°21'0 0.0
2014-Apr-18 21:27N 47°35' W 122°21'0 0.0
2014-Apr-18 20:06N 47°35' W 122°20'0 0.1
2014-Apr-18 19:27N 47°35' W 122°21'0 0.0
2014-Apr-18 18:33N 47°35' W 122°21'0 0.0
2014-Apr-18 17:30N 47°35' W 122°21'0 0.0
2014-Apr-18 16:30N 47°35' W 122°21'0 0.0
2014-Apr-18 15:34N 47°35' W 122°21'5 5.3
2014-Apr-18 14:34N 47°38' W 122°27'8 8.4
2014-Apr-18 13:34N 47°46' W 122°27'5 4.9
2014-Apr-18 12:34N 47°51' W 122°25'1 0.7
2014-Apr-18 11:34N 47°51' W 122°24'1 0.7
2014-Apr-18 10:34N 47°51' W 122°24'1 0.6
2014-Apr-18 09:33N 47°51' W 122°25'0 0.2
2014-Apr-18 08:34N 47°51' W 122°25'1 0.7
2014-Apr-18 07:33N 47°51' W 122°25'0 0.3
2014-Apr-18 06:34N 47°51' W 122°25'1 0.9
2014-Apr-18 05:33N 47°50' W 122°26'1211.9
2014-Apr-18 04:33N 47°59' W 122°39'0 0.5
2014-Apr-18 03:32N 47°59' W 122°39'8 8.1
2014-Apr-18 02:33N 48°07' W 122°41'1615.6
2014-Apr-18 01:33N 48°16' W 123°00'1 0.8
2014-Apr-18 00:33N 48°16' W 122°59'1 1.4
2014-Apr-17 23:33N 48°15' W 122°57'1 1.1
2014-Apr-17 22:33N 48°15' W 122°58'2 1.7
2014-Apr-17 21:32N 48°16' W 123°01'1 1.2
2014-Apr-17 20:33N 48°16' W 123°02'8 8.1
2014-Apr-17 19:33N 48°12' W 122°52'1716.9
2014-Apr-17 18:33N 47°59' W 122°35'1515.5
2014-Apr-17 17:33N 47°45' W 122°26'1010.4
2014-Apr-17 16:33N 47°35' W 122°21'0 0.1
2014-Apr-17 15:33N 47°35' W 122°21'0 0.0
2014-Apr-17 14:33N 47°35' W 122°21'0 0.0
2014-Apr-17 13:33N 47°35' W 122°21'0 0.0
2014-Apr-17 12:33N 47°35' W 122°21'0 0.0
2014-Apr-17 11:33N 47°35' W 122°21'0 0.0
2014-Apr-17 10:30N 47°35' W 122°21'0 0.0
2014-Apr-17 09:30N 47°35' W 122°21'0 0.0
2014-Apr-17 08:33N 47°35' W 122°21'0 0.0
2014-Apr-17 07:33N 47°35' W 122°21'0 0.0
2014-Apr-17 06:33N 47°35' W 122°21'0 0.0
2014-Apr-17 05:33N 47°35' W 122°21'0 0.0
2014-Apr-17 04:33N 47°35' W 122°21'0 0.0
2014-Apr-17 03:33N 47°35' W 122°21'0 0.0
2014-Apr-17 02:30N 47°35' W 122°21'0 0.0
2014-Apr-17 01:33N 47°35' W 122°21'0 0.0
2014-Apr-17 00:33N 47°35' W 122°21'0 0.0
2014-Apr-16 23:33N 47°35' W 122°21'0 0.0
2014-Apr-16 22:33N 47°35' W 122°21'0 0.0
2014-Apr-16 21:33N 47°35' W 122°21'0 0.0
2014-Apr-16 20:33N 47°35' W 122°21'0 0.0
2014-Apr-16 19:33N 47°35' W 122°21'0 0.0
2014-Apr-16 18:33N 47°35' W 122°21'0 0.0
2014-Apr-16 17:33N 47°35' W 122°21'0 0.0
2014-Apr-16 16:33N 47°35' W 122°21'0 0.0
2014-Apr-16 15:33N 47°35' W 122°21'0 0.0
2014-Apr-16 14:33N 47°35' W 122°21'0 0.0
2014-Apr-16 13:27N 47°35' W 122°21'0 0.0
2014-Apr-16 12:33N 47°35' W 122°21'0 0.0
2014-Apr-16 11:33N 47°35' W 122°21'0 0.0
2014-Apr-16 10:33N 47°35' W 122°21'0 0.0
2014-Apr-16 09:30N 47°35' W 122°21'0 0.0
2014-Apr-16 08:33N 47°35' W 122°21'0 0.0
2014-Apr-16 07:33N 47°35' W 122°21'0 0.0
2014-Apr-16 06:30N 47°35' W 122°21'0 0.0
2014-Apr-16 05:33N 47°35' W 122°21'0 0.0
2014-Apr-16 04:33N 47°35' W 122°21'0 0.0
2014-Apr-16 03:33N 47°35' W 122°21'0 0.0
2014-Apr-16 02:33N 47°35' W 122°21'0 0.0
2014-Apr-16 01:33N 47°35' W 122°21'0 0.0
2014-Apr-16 00:33N 47°35' W 122°21'0 0.0
2014-Apr-15 23:33N 47°35' W 122°21'0 0.0
2014-Apr-15 22:33N 47°35' W 122°21'0 0.0
2014-Apr-15 21:33N 47°35' W 122°21'0 0.0
2014-Apr-15 20:33N 47°35' W 122°21'0 0.0
2014-Apr-15 19:33N 47°35' W 122°21'0 0.0
2014-Apr-15 18:33N 47°35' W 122°21'1 0.5
2014-Apr-15 17:33N 47°35' W 122°20'0 0.2
2014-Apr-15 16:33N 47°35' W 122°20'0 0.1
2014-Apr-15 15:33N 47°35' W 122°20'0 0.0
2014-Apr-15 14:33N 47°35' W 122°20'0 0.1
2014-Apr-15 12:34N 47°36' W 122°20'0 0.1
2014-Apr-15 11:34N 47°36' W 122°20'0 0.1
2014-Apr-15 10:34N 47°36' W 122°20'0 0.1
2014-Apr-15 09:34N 47°36' W 122°20'0 0.2
2014-Apr-15 08:34N 47°36' W 122°20'0 0.1
2014-Apr-15 07:34N 47°36' W 122°20'0 0.1
2014-Apr-15 06:34N 47°36' W 122°20'0 0.1
2014-Apr-15 05:31N 47°36' W 122°20'0 0.1
2014-Apr-15 03:34N 47°36' W 122°21'0 0.0
2014-Apr-15 01:34N 47°35' W 122°20'0 0.2
2014-Apr-15 00:31N 47°35' W 122°20'0 0.1
2014-Apr-14 23:34N 47°35' W 122°20'0 0.0
2014-Apr-14 22:34N 47°35' W 122°20'0 0.1
2014-Apr-14 21:33N 47°35' W 122°20'0 0.1
2014-Apr-14 20:33N 47°35' W 122°20'0 0.1
2014-Apr-14 19:33N 47°35' W 122°21'0 0.0
2014-Apr-14 18:33N 47°35' W 122°21'0 0.0
2014-Apr-14 17:30N 47°35' W 122°21'0 0.0
2014-Apr-14 16:33N 47°35' W 122°21'0 0.0
2014-Apr-14 15:33N 47°35' W 122°21'0 0.0
2014-Apr-14 14:30N 47°35' W 122°21'0 0.0
2014-Apr-14 13:33N 47°35' W 122°21'0 0.2
2014-Apr-14 11:33N 47°35' W 122°20'0 0.1
2014-Apr-14 10:33N 47°35' W 122°20'0 0.4
2014-Apr-14 09:33N 47°35' W 122°20'0 0.2
2014-Apr-14 08:33N 47°36' W 122°20'0 0.3
2014-Apr-14 07:33N 47°36' W 122°20'0 0.2
2014-Apr-14 06:33N 47°36' W 122°20'0 0.1
2014-Apr-14 05:33N 47°36' W 122°20'0 0.0
2014-Apr-13 22:33N 47°35' W 122°21'0 0.0
2014-Apr-13 21:30N 47°35' W 122°21'0 0.0
2014-Apr-13 20:33N 47°35' W 122°21'0 0.0
2014-Apr-13 19:33N 47°35' W 122°21'0 0.0
2014-Apr-13 18:30N 47°35' W 122°21'0 0.0
2014-Apr-13 17:33N 47°35' W 122°21'0 0.0
2014-Apr-13 16:33N 47°35' W 122°21'0 0.0
2014-Apr-13 15:30N 47°35' W 122°21'0 0.0
2014-Apr-13 14:33N 47°35' W 122°21'0 0.0
2014-Apr-13 13:33N 47°35' W 122°21'0 0.0
2014-Apr-13 12:33N 47°35' W 122°21'0 0.0
2014-Apr-13 11:30N 47°35' W 122°21'0 0.0
2014-Apr-13 10:33N 47°35' W 122°21'0 0.0
2014-Apr-13 09:30N 47°35' W 122°21'0 0.0
2014-Apr-13 07:27N 47°35' W 122°21'0 0.0
2014-Apr-13 06:24N 47°35' W 122°21'0 0.0
2014-Apr-13 05:30N 47°35' W 122°21'0 0.0
2014-Apr-13 04:30N 47°35' W 122°21'0 0.0
2014-Apr-13 03:33N 47°35' W 122°21'0 0.0
2014-Apr-13 02:18N 47°35' W 122°21'0 0.0
2014-Apr-13 01:21N 47°35' W 122°21'0 0.0
2014-Apr-13 00:18N 47°35' W 122°21'0 0.0
2014-Apr-12 23:33N 47°35' W 122°21'0 0.0
2014-Apr-12 22:33N 47°35' W 122°21'0 0.0
2014-Apr-12 21:33N 47°35' W 122°21'1 1.0
2014-Apr-12 20:33N 47°36' W 122°22'1313.0
2014-Apr-12 19:34N 47°49' W 122°26'1 0.7
2014-Apr-12 18:33N 47°49' W 122°25'8 8.1
2014-Apr-12 17:33N 47°41' W 122°27'7 6.7
2014-Apr-12 16:28N 47°35' W 122°21'0 0.0
2014-Apr-12 15:28N 47°35' W 122°21'0 0.0
2014-Apr-12 14:31N 47°35' W 122°21'1 0.6
2014-Apr-12 13:31N 47°36' W 122°20'0 0.1
2014-Apr-12 12:31N 47°36' W 122°20'0 0.3
2014-Apr-12 11:31N 47°36' W 122°20'0 0.2
2014-Apr-12 10:25N 47°36' W 122°20'0 0.2
2014-Apr-12 08:25N 47°36' W 122°20'0 0.0
2014-Apr-12 07:13N 47°36' W 122°20'0 0.2
2014-Apr-12 06:31N 47°36' W 122°20'0 0.2
2014-Apr-12 05:28N 47°36' W 122°20'0 0.2
2014-Apr-12 04:31N 47°36' W 122°20'0 0.1
2014-Apr-12 03:25N 47°36' W 122°21'0 0.0
2014-Apr-12 02:31N 47°36' W 122°21'0 0.0
2014-Apr-12 01:31N 47°36' W 122°21'0 0.1
2014-Apr-11 23:19N 47°35' W 122°21'0 0.1
2014-Apr-11 22:19N 47°35' W 122°21'0 0.1
2014-Apr-11 21:31N 47°35' W 122°21'0 0.0
2014-Apr-11 20:31N 47°35' W 122°21'0 0.0
2014-Apr-11 19:32N 47°35' W 122°21'0 0.0
2014-Apr-11 18:32N 47°35' W 122°21'0 0.0
2014-Apr-11 17:32N 47°35' W 122°21'0 0.0
2014-Apr-11 16:32N 47°35' W 122°21'1 1.5
2014-Apr-11 15:34N 47°36' W 122°22'6 6.3
2014-Apr-11 14:34N 47°41' W 122°28'1312.7
2014-Apr-11 13:33N 47°54' W 122°29'1313.2
2014-Apr-11 12:33N 48°05' W 122°40'1212.0
2014-Apr-11 11:33N 48°13' W 122°54'4 4.4
2014-Apr-11 10:33N 48°14' W 122°60'1 0.7
2014-Apr-11 09:33N 48°15' W 122°59'1 0.8
2014-Apr-11 08:33N 48°15' W 123°00'0 0.3
2014-Apr-11 07:33N 48°15' W 122°60'1 0.9
2014-Apr-11 06:33N 48°14' W 122°58'1 1.1
2014-Apr-11 05:33N 48°15' W 122°60'0 0.1
2014-Apr-11 04:33N 48°15' W 122°60'  

Dump ship's entire track history

sailing weather and tide predictions

USCGC Healy — NEPP — position and weather